LIBD/BRI METAR and TAF weather

Enter ICAO airport designator
Station Type Date Time Source
LIBD METAR 2019/04/18 15:20 UTC NOAA

LIBD 181520Z 02007KT 330V060 CAVOK 17/09 Q1022


Station Type Date Time Source
LIBD Decoded METAR 2019/04/18 15:20 UTC NOAA

Bari / Palese Macchie, Italy (LIBD) 41-08N 016-47E 49M
Apr 18, 2019 - 11:20 AM EDT / 2019.04.18 1520 UTC
Wind: from the NNE (020 degrees) at 8 MPH (7 KT) (direction variable):0
Visibility: greater than 7 mile(s):0
Temperature: 62 F (17 C)
Dew Point: 48 F (9 C)
Relative Humidity: 59%
Pressure (altimeter): 30.18 in. Hg (1022 hPa)
ob: LIBD 181520Z 02007KT 330V060 CAVOK 17/09 Q1022
cycle: 15

Station Type Date Time Source
LIBD TAF 2019/04/18 12:21 UTC NOAA

TAF LIBD 181100Z 1812/1912 01012KT CAVOK
BECMG 1818/1820 29007KT
BECMG 1906/1908 03010KT

Example: see airport list